Time;durP1;ratioP1;P1;durP2;ratioP2;P2;SDS_P1;SDS_P2;PMS_P1;PMS_P2;Temp;Humidity;BMP_temperature;BMP_pressure;BME280_temperature;BME280_humidity;BME280_pressure;Samples;Min_cycle;Max_cycle;Signal;HPM_P1;HPM_P2
2023/05/04 00:01:21;;;;;;;;;;;5.60;99.90;;;;;;8280527;28;19986;-76
2023/05/04 00:05:21;;;;;;;;;;;5.50;99.90;;;;;;8258272;28;19910;-76
2023/05/04 00:09:22;;;;;;;;;;;5.20;99.90;;;;;;8281661;28;19917;-75
2023/05/04 00:13:22;;;;;;;;;;;5.10;99.90;;;;;;8263829;28;20301;-75
2023/05/04 00:17:23;;;;;;;;;;;5.00;99.90;;;;;;8250020;28;19918;-75
2023/05/04 00:21:23;;;;;;;;;;;5.00;99.90;;;;;;8258168;28;19909;-75
2023/05/04 00:25:24;;;;;;;;;;;5.30;99.90;;;;;;8275516;28;20753;-76
2023/05/04 00:29:24;;;;;;;;;;;5.50;99.90;;;;;;8275752;28;20398;-75
2023/05/04 00:33:25;;;;;;;;;;;5.70;99.90;;;;;;8253430;28;20374;-75
2023/05/04 00:37:26;;;;;;;;;;;5.80;99.90;;;;;;8272588;28;19921;-76
2023/05/04 00:41:26;;;;;;;;;;;5.70;99.90;;;;;;8258615;28;20370;-76
2023/05/04 00:45:27;;;;;;;;;;;5.40;99.90;;;;;;8281557;28;20000;-75
2023/05/04 00:49:28;;;;;;;;;;;5.40;99.90;;;;;;8262793;28;19963;-75
2023/05/04 00:53:28;;;;;;;;;;;5.00;99.90;;;;;;8280689;28;19918;-76
2023/05/04 00:57:29;;;;;;;;;;;4.80;99.90;;;;;;8281861;28;19972;-75
2023/05/04 01:01:29;;;;;;;;;;;4.80;99.90;;;;;;8252398;28;19921;-75
2023/05/04 01:05:38;;;;;;;;;;;4.60;99.90;;;;;;8277563;28;19963;-75
2023/05/04 01:09:38;;;;;;;;;;;4.60;99.90;;;;;;8275294;28;20382;-76
2023/05/04 01:13:39;;;;;;;;;;;4.70;99.90;;;;;;8267558;28;19920;-75
2023/05/04 01:17:40;;;;;;;;;;;4.70;99.90;;;;;;8257344;28;19910;-76
2023/05/04 01:21:41;;;;;;;;;;;4.60;99.90;;;;;;8275264;28;19921;-76
2023/05/04 01:25:52;;;;;;;;;;;4.70;99.90;;;;;;8278226;28;19960;-76
2023/05/04 01:29:52;;;;;;;;;;;4.50;99.90;;;;;;8251151;28;20070;-76
2023/05/04 01:33:53;;;;;;;;;;;4.60;99.90;;;;;;8276839;28;19988;-75
2023/05/04 01:37:53;;;;;;;;;;;4.50;99.90;;;;;;8274651;28;19914;-74
2023/05/04 01:41:54;;;;;;;;;;;4.40;99.90;;;;;;8274671;28;19925;-75
2023/05/04 01:45:54;;;;;;;;;;;4.20;99.90;;;;;;8256782;28;20378;-76
2023/05/04 01:49:55;;;;;;;;;;;4.20;99.90;;;;;;8257291;28;19937;-75
2023/05/04 01:53:55;;;;;;;;;;;4.20;99.90;;;;;;8269977;28;19917;-75
2023/05/04 01:57:56;;;;;;;;;;;4.10;99.90;;;;;;8285664;28;19941;-75
2023/05/04 02:01:56;;;;;;;;;;;4.00;99.90;;;;;;8280350;28;20704;-77
2023/05/04 02:05:57;;;;;;;;;;;3.90;99.90;;;;;;8278979;28;20438;-75
2023/05/04 02:09:57;;;;;;;;;;;3.90;99.90;;;;;;8275946;28;20410;-75
2023/05/04 02:13:57;;;;;;;;;;;3.90;99.90;;;;;;8285436;28;20370;-75
2023/05/04 02:17:58;;;;;;;;;;;3.90;99.90;;;;;;8276237;28;20370;-75
2023/05/04 02:21:58;;;;;;;;;;;3.90;99.90;;;;;;8257840;28;20040;-76
2023/05/04 02:25:59;;;;;;;;;;;3.90;99.90;;;;;;8262066;28;19917;-75
2023/05/04 02:29:59;;;;;;;;;;;3.70;99.90;;;;;;8277606;28;19920;-75
2023/05/04 02:34:00;;;;;;;;;;;3.60;99.90;;;;;;8260485;28;19961;-75
2023/05/04 02:38:00;;;;;;;;;;;3.60;99.90;;;;;;8261379;28;19916;-75
2023/05/04 02:42:01;;;;;;;;;;;3.60;99.90;;;;;;8257891;28;19917;-75
2023/05/04 02:46:02;;;;;;;;;;;3.50;99.90;;;;;;8269145;28;19913;-75
2023/05/04 02:50:03;;;;;;;;;;;3.30;99.90;;;;;;8282527;28;19936;-75
2023/05/04 02:54:04;;;;;;;;;;;3.30;99.90;;;;;;8258079;28;20136;-75
2023/05/04 02:58:04;;;;;;;;;;;3.50;99.90;;;;;;8278757;28;19917;-76
2023/05/04 03:02:05;;;;;;;;;;;3.60;99.90;;;;;;8281234;28;20378;-75
2023/05/04 03:06:05;;;;;;;;;;;3.60;99.90;;;;;;8271929;28;19914;-75
2023/05/04 03:10:07;;;;;;;;;;;3.60;99.90;;;;;;8274830;28;19914;-75
2023/05/04 03:14:07;;;;;;;;;;;3.50;99.90;;;;;;8269657;28;19913;-75
2023/05/04 03:18:08;;;;;;;;;;;3.30;99.90;;;;;;8259196;28;20000;-76
2023/05/04 03:22:09;;;;;;;;;;;3.20;99.90;;;;;;8255304;28;19917;-75
2023/05/04 03:26:09;;;;;;;;;;;3.10;99.90;;;;;;8274454;28;19910;-75
2023/05/04 03:30:10;;;;;;;;;;;3.00;99.90;;;;;;8274734;28;20417;-76
2023/05/04 03:34:13;;;;;;;;;;;3.00;99.90;;;;;;8256181;28;20321;-76
2023/05/04 03:38:14;;;;;;;;;;;2.90;99.90;;;;;;8260580;28;19916;-76
2023/05/04 03:42:14;;;;;;;;;;;3.30;99.90;;;;;;8237922;28;19925;-75
2023/05/04 03:46:14;;;;;;;;;;;3.60;99.90;;;;;;8254925;28;19924;-75
2023/05/04 03:50:15;;;;;;;;;;;3.60;99.90;;;;;;8269151;28;19922;-75
2023/05/04 03:54:15;;;;;;;;;;;3.40;99.90;;;;;;8264583;28;19914;-75
2023/05/04 03:58:16;;;;;;;;;;;3.00;99.90;;;;;;8303068;23;19925;-78
2023/05/04 04:02:16;;;;;;;;;;;2.70;99.90;;;;;;8289257;28;19971;-78
2023/05/04 04:06:17;;;;;;;;;;;2.60;99.90;;;;;;8283700;28;20304;-79
2023/05/04 04:10:17;;;;;;;;;;;2.60;99.90;;;;;;8281611;28;20520;-79
2023/05/04 04:14:18;;;;;;;;;;;2.90;99.90;;;;;;8281334;28;19917;-79
2023/05/04 04:18:18;;;;;;;;;;;3.00;99.90;;;;;;8297599;28;19984;-78
2023/05/04 04:22:19;;;;;;;;;;;2.90;99.90;;;;;;8268957;28;20341;-78
2023/05/04 04:26:20;;;;;;;;;;;3.00;99.90;;;;;;8272867;28;19925;-78
2023/05/04 04:30:21;;;;;;;;;;;3.20;99.90;;;;;;8302643;28;19921;-78
2023/05/04 04:34:21;;;;;;;;;;;3.30;99.90;;;;;;8295610;28;19922;-79
2023/05/04 04:38:22;;;;;;;;;;;3.30;99.90;;;;;;8291061;28;19972;-78
2023/05/04 04:42:22;;;;;;;;;;;3.60;99.90;;;;;;8295094;28;19917;-79
2023/05/04 04:46:23;;;;;;;;;;;3.90;99.90;;;;;;8290103;28;19914;-79
2023/05/04 04:50:23;;;;;;;;;;;3.80;99.90;;;;;;8276126;28;20008;-78
2023/05/04 04:54:24;;;;;;;;;;;3.60;99.90;;;;;;8285726;28;19910;-79
2023/05/04 04:58:25;;;;;;;;;;;3.50;99.90;;;;;;8286395;28;19944;-79
2023/05/04 05:02:27;;;;;;;;;;;3.80;99.90;;;;;;8288781;28;19913;-79
2023/05/04 05:06:27;;;;;;;;;;;4.00;99.90;;;;;;8277176;28;19909;-77
2023/05/04 05:10:28;;;;;;;;;;;4.40;99.90;;;;;;8276017;28;19917;-78
2023/05/04 05:14:30;;;;;;;;;;;4.70;99.90;;;;;;8292981;28;19941;-77
2023/05/04 05:18:31;;;;;;;;;;;4.90;99.90;;;;;;8276305;28;20362;-78
2023/05/04 05:22:31;;;;;;;;;;;5.00;99.90;;;;;;8295077;28;19916;-77
2023/05/04 05:26:32;;;;;;;;;;;5.40;99.90;;;;;;8294840;28;20390;-77
2023/05/04 05:30:33;;;;;;;;;;;5.70;99.90;;;;;;8292075;28;19941;-78
2023/05/04 05:34:37;;;;;;;;;;;6.00;99.90;;;;;;8290315;28;19914;-77
2023/05/04 05:38:38;;;;;;;;;;;6.30;99.90;;;;;;8275776;28;19920;-78
2023/05/04 05:42:38;;;;;;;;;;;6.50;99.90;;;;;;8268653;28;19913;-77
2023/05/04 05:46:39;;;;;;;;;;;6.70;99.90;;;;;;8267244;28;19960;-78
2023/05/04 05:50:39;;;;;;;;;;;7.50;99.90;;;;;;8285871;28;19920;-79
2023/05/04 05:54:40;;;;;;;;;;;8.50;99.90;;;;;;8265096;28;19936;-79
2023/05/04 05:58:40;;;;;;;;;;;9.10;99.90;;;;;;8259294;28;20000;-79
2023/05/04 06:02:41;;;;;;;;;;;10.50;99.90;;;;;;8291419;28;19910;-80
2023/05/04 06:06:41;;;;;;;;;;;11.40;99.90;;;;;;8292106;28;19941;-79
2023/05/04 06:10:42;;;;;;;;;;;12.20;99.90;;;;;;8286751;28;19925;-79
2023/05/04 06:14:42;;;;;;;;;;;12.70;99.90;;;;;;8290713;28;19918;-81
2023/05/04 06:18:43;;;;;;;;;;;12.90;99.90;;;;;;8290013;28;19910;-80
2023/05/04 06:22:43;;;;;;;;;;;13.40;99.90;;;;;;8293856;28;19917;-86
2023/05/04 06:26:44;;;;;;;;;;;14.30;99.90;;;;;;8274989;28;19913;-86
2023/05/04 06:30:44;;;;;;;;;;;15.30;99.90;;;;;;8292602;28;19917;-86
2023/05/04 06:34:44;;;;;;;;;;;16.00;99.90;;;;;;8273403;28;19913;-86
2023/05/04 06:38:45;;;;;;;;;;;16.80;99.90;;;;;;8273055;28;19914;-87
2023/05/04 06:42:45;;;;;;;;;;;17.60;99.90;;;;;;8293882;28;20347;-86
2023/05/04 06:46:46;;;;;;;;;;;17.90;99.90;;;;;;8283529;28;19920;-87
2023/05/04 06:50:47;;;;;;;;;;;18.30;99.90;;;;;;8281786;28;20012;-87
2023/05/04 06:54:47;;;;;;;;;;;18.50;99.90;;;;;;8269809;28;20337;-82
2023/05/04 06:58:49;;;;;;;;;;;18.60;99.90;;;;;;8276936;28;20023;-80
2023/05/04 07:02:50;;;;;;;;;;;19.10;99.90;;;;;;8289015;28;20020;-81
2023/05/04 07:06:51;;;;;;;;;;;19.10;99.90;;;;;;8278552;28;19909;-81
2023/05/04 07:10:51;;;;;;;;;;;19.50;99.90;;;;;;8275308;28;19914;-81
2023/05/04 07:14:52;;;;;;;;;;;19.30;99.90;;;;;;8278990;28;20047;-81
2023/05/04 07:18:52;;;;;;;;;;;19.60;99.90;;;;;;8297114;28;19909;-81
2023/05/04 07:22:55;;;;;;;;;;;19.60;99.90;;;;;;8289847;28;20390;-81
2023/05/04 07:26:56;;;;;;;;;;;19.60;99.90;;;;;;8279827;28;19977;-80
2023/05/04 07:30:56;;;;;;;;;;;19.50;99.90;;;;;;8296891;28;19914;-81
2023/05/04 07:34:56;;;;;;;;;;;19.40;99.90;;;;;;8278365;28;19932;-81
2023/05/04 07:38:57;;;;;;;;;;;19.90;99.90;;;;;;8274477;28;20333;-81
2023/05/04 07:42:57;;;;;;;;;;;20.20;99.90;;;;;;8280047;28;20370;-82
2023/05/04 07:46:58;;;;;;;;;;;20.20;99.90;;;;;;8269669;28;19910;-81
2023/05/04 07:50:59;;;;;;;;;;;20.60;99.90;;;;;;8270947;28;19929;-81
2023/05/04 07:54:59;;;;;;;;;;;20.40;99.90;;;;;;8274587;28;20301;-81
2023/05/04 07:59:00;;;;;;;;;;;20.80;99.90;;;;;;8267209;28;20008;-80
2023/05/04 08:03:00;;;;;;;;;;;20.30;99.90;;;;;;8296610;28;19937;-81
2023/05/04 08:07:00;;;;;;;;;;;20.00;99.90;;;;;;8273591;28;19910;-81
2023/05/04 08:11:01;;;;;;;;;;;20.10;99.90;;;;;;8295694;28;19913;-80
2023/05/04 08:15:03;;;;;;;;;;;20.30;99.90;;;;;;8275668;28;19932;-81
2023/05/04 08:19:04;;;;;;;;;;;19.70;99.90;;;;;;8277414;28;19909;-81
2023/05/04 08:23:04;;;;;;;;;;;19.40;99.90;;;;;;8278055;28;19917;-81
2023/05/04 08:27:05;;;;;;;;;;;19.70;99.90;;;;;;8275442;28;20284;-81
2023/05/04 08:31:06;;;;;;;;;;;20.30;99.90;;;;;;8277986;28;20038;-81
2023/05/04 08:35:07;;;;;;;;;;;20.10;99.90;;;;;;8277264;28;19909;-79
2023/05/04 08:39:07;;;;;;;;;;;19.30;99.90;;;;;;8277172;28;20409;-82
2023/05/04 08:43:08;;;;;;;;;;;19.10;99.90;;;;;;8277579;28;20036;-82
2023/05/04 08:47:08;;;;;;;;;;;19.20;99.90;;;;;;8274148;28;19909;-81
2023/05/04 08:51:09;;;;;;;;;;;19.90;99.90;;;;;;8273152;28;19914;-79
2023/05/04 08:55:10;;;;;;;;;;;19.40;99.90;;;;;;8270507;28;19921;-79
2023/05/04 08:59:17;;;;;;;;;;;19.20;99.90;;;;;;8287923;28;19921;-81
2023/05/04 09:03:17;;;;;;;;;;;19.10;99.90;;;;;;8291400;28;19955;-79
2023/05/04 09:07:19;;;;;;;;;;;19.60;99.90;;;;;;8292268;28;19976;-79
2023/05/04 09:11:20;;;;;;;;;;;20.20;99.90;;;;;;8282295;28;19917;-81
2023/05/04 09:15:20;;;;;;;;;;;19.90;99.90;;;;;;8279421;28;19932;-80
2023/05/04 09:19:21;;;;;;;;;;;19.90;99.90;;;;;;8277319;28;19916;-80
2023/05/04 09:23:21;;;;;;;;;;;19.90;99.90;;;;;;8300226;28;19916;-81
2023/05/04 09:27:22;;;;;;;;;;;19.20;99.90;;;;;;8298765;28;19917;-82
2023/05/04 09:31:22;;;;;;;;;;;19.60;99.90;;;;;;8277055;28;19917;-81
2023/05/04 09:35:29;;;;;;;;;;;20.50;99.90;;;;;;8277983;28;20008;-81
2023/05/04 09:39:30;;;;;;;;;;;20.70;99.90;;;;;;8292661;28;19917;-79
2023/05/04 09:43:40;;;;;;;;;;;20.80;99.90;;;;;;8281971;28;20474;-81
2023/05/04 09:47:41;;;;;;;;;;;20.30;99.90;;;;;;8269476;28;20342;-81
2023/05/04 09:51:41;;;;;;;;;;;20.60;99.90;;;;;;8268383;28;19913;-80
2023/05/04 09:55:44;;;;;;;;;;;20.80;99.90;;;;;;8318110;22;19988;-78
2023/05/04 09:59:44;;;;;;;;;;;20.90;99.90;;;;;;8304692;28;19921;-77
2023/05/04 10:03:45;;;;;;;;;;;20.90;99.90;;;;;;8285563;28;20374;-78
2023/05/04 10:07:45;;;;;;;;;;;20.50;99.90;;;;;;8306813;28;19921;-78
2023/05/04 10:11:46;;;;;;;;;;;20.60;99.90;;;;;;8287800;28;19917;-78
2023/05/04 10:15:53;;;;;;;;;;;20.80;99.90;;;;;;8291898;28;19909;-78
2023/05/04 10:19:53;;;;;;;;;;;20.30;99.90;;;;;;8289240;28;20008;-78
2023/05/04 10:23:54;;;;;;;;;;;20.10;99.90;;;;;;8313014;28;19913;-78
2023/05/04 10:28:10;;;;;;;;;;;21.10;99.90;;;;;;8294415;28;19909;-79
2023/05/04 10:32:21;;;;;;;;;;;21.00;99.90;;;;;;8294766;28;19917;-79
2023/05/04 10:36:21;;;;;;;;;;;21.70;99.90;;;;;;8287457;28;19960;-78
2023/05/04 10:40:35;;;;;;;;;;;22.70;99.90;;;;;;8313358;28;20340;-79
2023/05/04 10:44:48;;;;;;;;;;;22.80;97.10;;;;;;8313036;28;20382;-76
2023/05/04 10:48:48;;;;;;;;;;;22.70;98.30;;;;;;8305486;28;19933;-76
2023/05/04 10:52:50;;;;;;;;;;;23.10;98.10;;;;;;8323723;28;19960;-76
2023/05/04 10:56:59;;;;;;;;;;;23.20;95.40;;;;;;8293642;28;19925;-76
2023/05/04 11:01:09;;;;;;;;;;;24.00;96.20;;;;;;8292507;28;19909;-76
2023/05/04 11:05:16;;;;;;;;;;;24.20;94.30;;;;;;8307415;28;19952;-76
2023/05/04 11:09:16;;;;;;;;;;;25.30;92.90;;;;;;8286400;28;20443;-78
2023/05/04 11:13:17;;;;;;;;;;;25.00;90.60;;;;;;8305442;28;19960;-77
2023/05/04 11:17:17;;;;;;;;;;;25.10;88.90;;;;;;8300069;28;19916;-77
2023/05/04 11:21:25;;;;;;;;;;;25.30;88.10;;;;;;8287783;28;20343;-77
2023/05/04 11:25:26;;;;;;;;;;;26.00;88.40;;;;;;8291833;28;19917;-77
2023/05/04 11:29:26;;;;;;;;;;;25.30;85.50;;;;;;8291275;28;19959;-76
2023/05/04 11:33:27;;;;;;;;;;;25.20;86.60;;;;;;8308869;28;19913;-77
2023/05/04 11:37:28;;;;;;;;;;;25.10;85.30;;;;;;8309113;28;19917;-77
2023/05/04 11:41:28;;;;;;;;;;;26.20;80.80;;;;;;8309340;28;19932;-76
2023/05/04 11:45:29;;;;;;;;;;;26.90;82.10;;;;;;8305232;28;20021;-77
2023/05/04 11:49:31;;;;;;;;;;;27.10;81.30;;;;;;8314657;28;19948;-77
2023/05/04 11:53:36;;;;;;;;;;;26.90;81.20;;;;;;8309100;28;19913;-76
2023/05/04 11:57:36;;;;;;;;;;;27.30;81.60;;;;;;8311410;28;20398;-76
2023/05/04 12:01:37;;;;;;;;;;;28.70;79.90;;;;;;8308975;28;19917;-77
2023/05/04 12:05:38;;;;;;;;;;;28.60;70.90;;;;;;8305876;28;20440;-77
2023/05/04 12:09:45;;;;;;;;;;;27.90;70.00;;;;;;8307712;28;19976;-77
2023/05/04 12:13:47;;;;;;;;;;;28.80;70.90;;;;;;8300060;28;20008;-77
2023/05/04 12:17:48;;;;;;;;;;;28.30;69.00;;;;;;8307760;28;19913;-77
2023/05/04 12:21:52;;;;;;;;;;;28.50;71.00;;;;;;8284779;28;19924;-77
2023/05/04 12:25:52;;;;;;;;;;;29.70;73.40;;;;;;8289689;28;19917;-77
2023/05/04 12:29:53;;;;;;;;;;;30.00;72.20;;;;;;8308154;28;19918;-77
2023/05/04 12:33:54;;;;;;;;;;;31.00;58.70;;;;;;8289881;28;20192;-77
2023/05/04 12:37:54;;;;;;;;;;;30.40;57.80;;;;;;8306563;28;19914;-76
2023/05/04 12:41:55;;;;;;;;;;;29.80;58.00;;;;;;8289182;28;19936;-77
2023/05/04 12:45:56;;;;;;;;;;;30.10;59.50;;;;;;8283541;28;20212;-77
2023/05/04 12:49:56;;;;;;;;;;;30.70;56.00;;;;;;8296492;28;20278;-77
2023/05/04 12:53:57;;;;;;;;;;;29.50;65.50;;;;;;8296410;28;20246;-77
2023/05/04 12:57:57;;;;;;;;;;;31.00;53.80;;;;;;8310649;28;19917;-77
2023/05/04 13:01:58;;;;;;;;;;;32.80;52.20;;;;;;8318496;28;19921;-78
2023/05/04 13:05:58;;;;;;;;;;;33.20;52.10;;;;;;8288964;28;19963;-78
2023/05/04 13:09:59;;;;;;;;;;;33.80;51.70;;;;;;8305621;28;19917;-77
2023/05/04 13:14:00;;;;;;;;;;;32.60;50.40;;;;;;8306718;28;19916;-78
2023/05/04 13:18:00;;;;;;;;;;;31.60;51.20;;;;;;8306236;28;19920;-77
2023/05/04 13:22:01;;;;;;;;;;;32.00;51.10;;;;;;8305846;28;20134;-77
2023/05/04 13:26:02;;;;;;;;;;;32.10;50.60;;;;;;8304699;28;19913;-77
2023/05/04 13:30:02;;;;;;;;;;;33.00;54.50;;;;;;8306101;28;19964;-77
2023/05/04 13:34:03;;;;;;;;;;;32.20;50.90;;;;;;8305529;28;19910;-77
2023/05/04 13:38:03;;;;;;;;;;;32.00;53.80;;;;;;8286862;28;19910;-77
2023/05/04 13:42:04;;;;;;;;;;;33.60;52.70;;;;;;8300681;28;19917;-77
2023/05/04 13:46:04;;;;;;;;;;;33.90;47.90;;;;;;8304201;28;20298;-77
2023/05/04 13:50:05;;;;;;;;;;;34.00;47.50;;;;;;8317655;28;19951;-77
2023/05/04 13:54:06;;;;;;;;;;;33.00;46.90;;;;;;8299457;28;20044;-77
2023/05/04 13:58:06;;;;;;;;;;;30.70;58.10;;;;;;8321852;28;20341;-77
2023/05/04 14:02:07;;;;;;;;;;;31.50;53.10;;;;;;8314531;28;19913;-77
2023/05/04 14:06:08;;;;;;;;;;;33.90;51.10;;;;;;8294383;28;19909;-77
2023/05/04 14:10:08;;;;;;;;;;;33.80;48.80;;;;;;8289576;28;20373;-78
2023/05/04 14:14:09;;;;;;;;;;;34.20;47.20;;;;;;8312036;28;19967;-78
2023/05/04 14:18:09;;;;;;;;;;;33.60;46.90;;;;;;8287876;28;19921;-77
2023/05/04 14:22:10;;;;;;;;;;;31.60;54.20;;;;;;8292895;28;19917;-77
2023/05/04 14:26:10;;;;;;;;;;;31.20;52.80;;;;;;8293953;28;19909;-77
2023/05/04 14:30:11;;;;;;;;;;;30.30;54.70;;;;;;8310269;28;20463;-77
2023/05/04 14:34:11;;;;;;;;;;;32.60;49.00;;;;;;8311334;28;20024;-77
2023/05/04 14:38:12;;;;;;;;;;;32.90;51.50;;;;;;8306600;28;19921;-77
2023/05/04 14:42:13;;;;;;;;;;;31.60;56.80;;;;;;8293016;28;20301;-77
2023/05/04 14:46:13;;;;;;;;;;;32.30;52.40;;;;;;8287589;28;20381;-77
2023/05/04 14:50:14;;;;;;;;;;;33.20;53.40;;;;;;8288945;28;20489;-77
2023/05/04 14:54:14;;;;;;;;;;;34.00;50.90;;;;;;8309111;28;20470;-78
2023/05/04 14:58:15;;;;;;;;;;;35.00;47.30;;;;;;8314830;28;19983;-77
2023/05/04 15:02:17;;;;;;;;;;;32.00;53.50;;;;;;8296103;28;19909;-77
2023/05/04 15:06:17;;;;;;;;;;;32.80;50.30;;;;;;8293817;28;20000;-77
2023/05/04 15:10:18;;;;;;;;;;;34.60;46.30;;;;;;8294027;28;20293;-78
2023/05/04 15:14:19;;;;;;;;;;;33.80;45.50;;;;;;8293065;28;19913;-77
2023/05/04 15:18:22;;;;;;;;;;;32.10;47.00;;;;;;8293343;28;19909;-77
2023/05/04 15:22:23;;;;;;;;;;;33.00;47.60;;;;;;8311264;28;20006;-77
2023/05/04 15:26:23;;;;;;;;;;;32.60;48.20;;;;;;8310793;28;19909;-77
2023/05/04 15:30:24;;;;;;;;;;;33.10;50.30;;;;;;8305289;28;19924;-77
2023/05/04 15:34:24;;;;;;;;;;;34.80;44.00;;;;;;8290872;28;20275;-78
2023/05/04 15:38:27;;;;;;;;;;;35.70;43.70;;;;;;8291243;28;20485;-78
2023/05/04 15:42:27;;;;;;;;;;;36.40;43.80;;;;;;8289602;28;19945;-77
2023/05/04 15:46:28;;;;;;;;;;;35.50;43.90;;;;;;8269192;28;19920;-77
2023/05/04 15:50:28;;;;;;;;;;;32.80;44.20;;;;;;8280351;28;19963;-77
2023/05/04 15:54:29;;;;;;;;;;;28.60;53.20;;;;;;8304023;28;19917;-78
2023/05/04 15:58:29;;;;;;;;;;;26.40;57.40;;;;;;8341335;22;19925;-79
2023/05/04 16:02:30;;;;;;;;;;;24.50;62.70;;;;;;8309667;28;19944;-79
2023/05/04 16:06:30;;;;;;;;;;;23.50;64.60;;;;;;8294625;28;19917;-79
2023/05/04 16:10:32;;;;;;;;;;;23.10;65.70;;;;;;8311173;28;19920;-79
2023/05/04 16:14:32;;;;;;;;;;;23.00;66.30;;;;;;8310868;28;19913;-79
2023/05/04 16:18:32;;;;;;;;;;;22.50;71.30;;;;;;8331441;28;19917;-80
2023/05/04 16:22:33;;;;;;;;;;;22.20;68.60;;;;;;8315728;28;19916;-80
2023/05/04 16:26:34;;;;;;;;;;;21.80;76.40;;;;;;8324889;28;20109;-80
2023/05/04 16:30:34;;;;;;;;;;;21.30;76.80;;;;;;8310659;28;19921;-80
2023/05/04 16:34:35;;;;;;;;;;;21.20;72.50;;;;;;8312073;28;19921;-79
2023/05/04 16:38:35;;;;;;;;;;;21.20;73.10;;;;;;8310809;28;19964;-78
2023/05/04 16:42:36;;;;;;;;;;;21.10;73.10;;;;;;8309913;28;19920;-80
2023/05/04 16:46:36;;;;;;;;;;;21.20;75.20;;;;;;8315313;28;19972;-80
2023/05/04 16:50:37;;;;;;;;;;;21.50;72.90;;;;;;8312087;28;19925;-78
2023/05/04 16:54:37;;;;;;;;;;;21.60;78.80;;;;;;8306262;28;19975;-80
2023/05/04 16:58:38;;;;;;;;;;;21.30;77.20;;;;;;8330707;28;19925;-79
2023/05/04 17:02:38;;;;;;;;;;;21.20;74.10;;;;;;8306780;28;19929;-80
2023/05/04 17:06:39;;;;;;;;;;;20.80;78.40;;;;;;8322199;28;19917;-79
2023/05/04 17:10:39;;;;;;;;;;;20.70;82.20;;;;;;8315647;28;20300;-79
2023/05/04 17:14:40;;;;;;;;;;;20.50;85.70;;;;;;8319926;28;19966;-79
2023/05/04 17:18:41;;;;;;;;;;;20.20;87.10;;;;;;8330198;28;20005;-79
2023/05/04 17:22:41;;;;;;;;;;;20.00;88.70;;;;;;8296922;28;19974;-78
2023/05/04 17:26:42;;;;;;;;;;;19.30;90.90;;;;;;8294766;28;20026;-77
2023/05/04 17:30:42;;;;;;;;;;;19.00;91.70;;;;;;8294330;28;19956;-78
2023/05/04 17:34:43;;;;;;;;;;;18.80;91.40;;;;;;8296242;28;19917;-79
2023/05/04 17:38:43;;;;;;;;;;;18.80;92.20;;;;;;8313356;28;20016;-80
2023/05/04 17:42:44;;;;;;;;;;;18.70;91.00;;;;;;8301227;28;20346;-79
2023/05/04 17:46:46;;;;;;;;;;;18.80;91.40;;;;;;8308080;28;19913;-77
2023/05/04 17:50:46;;;;;;;;;;;19.00;92.00;;;;;;8299280;28;20031;-77
2023/05/04 17:54:47;;;;;;;;;;;18.80;90.70;;;;;;8308517;28;19917;-78
2023/05/04 17:58:47;;;;;;;;;;;18.60;92.50;;;;;;8301462;28;19925;-78
2023/05/04 18:02:48;;;;;;;;;;;18.50;91.80;;;;;;8295417;28;19913;-78
2023/05/04 18:06:48;;;;;;;;;;;18.40;92.50;;;;;;8318183;28;19913;-78
2023/05/04 18:10:49;;;;;;;;;;;18.00;93.60;;;;;;8302785;28;19941;-79
2023/05/04 18:14:50;;;;;;;;;;;17.80;94.20;;;;;;8296521;28;19939;-80
2023/05/04 18:18:50;;;;;;;;;;;17.20;95.40;;;;;;8309005;28;19948;-79
2023/05/04 18:22:50;;;;;;;;;;;16.90;97.60;;;;;;8318557;28;20401;-79
2023/05/04 18:26:54;;;;;;;;;;;16.50;99.90;;;;;;8295157;28;19923;-79
2023/05/04 18:30:55;;;;;;;;;;;16.10;99.90;;;;;;8297814;28;19921;-78
2023/05/04 18:34:56;;;;;;;;;;;15.70;99.90;;;;;;8294212;28;19917;-79
2023/05/04 18:38:59;;;;;;;;;;;15.40;99.90;;;;;;8309520;28;19991;-79
2023/05/04 18:43:01;;;;;;;;;;;15.20;99.90;;;;;;8305689;28;21224;-80
2023/05/04 18:47:02;;;;;;;;;;;15.10;99.90;;;;;;8303261;28;19917;-80
2023/05/04 18:51:03;;;;;;;;;;;14.90;99.90;;;;;;8306218;28;20366;-78
2023/05/04 18:55:04;;;;;;;;;;;14.80;99.90;;;;;;8323874;28;19924;-78
2023/05/04 18:59:05;;;;;;;;;;;14.60;99.90;;;;;;8307977;28;19948;-79
2023/05/04 19:03:06;;;;;;;;;;;14.50;99.90;;;;;;8306678;28;19921;-78
2023/05/04 19:07:08;;;;;;;;;;;14.30;99.90;;;;;;8323459;28;19940;-80
2023/05/04 19:11:09;;;;;;;;;;;14.40;99.90;;;;;;8326826;28;19960;-79
2023/05/04 19:15:09;;;;;;;;;;;14.40;99.90;;;;;;8305261;28;19920;-80
2023/05/04 19:19:10;;;;;;;;;;;14.30;99.90;;;;;;8316737;28;19917;-78
2023/05/04 19:23:10;;;;;;;;;;;14.40;99.90;;;;;;8305085;28;19962;-78
2023/05/04 19:27:10;;;;;;;;;;;14.50;99.90;;;;;;8328242;28;19917;-78
2023/05/04 19:31:11;;;;;;;;;;;14.70;99.90;;;;;;8313149;28;19928;-77
2023/05/04 19:35:13;;;;;;;;;;;14.40;99.90;;;;;;8308105;28;20055;-78
2023/05/04 19:39:15;;;;;;;;;;;14.40;99.90;;;;;;8312917;28;20019;-78
2023/05/04 19:43:16;;;;;;;;;;;14.20;99.90;;;;;;8299872;28;19925;-78
2023/05/04 19:47:16;;;;;;;;;;;13.90;99.90;;;;;;8300117;28;20285;-78
2023/05/04 19:51:17;;;;;;;;;;;14.00;99.90;;;;;;8298209;28;19928;-79
2023/05/04 19:55:17;;;;;;;;;;;13.60;99.90;;;;;;8300968;28;19913;-79
2023/05/04 19:59:18;;;;;;;;;;;13.50;99.90;;;;;;8302772;28;19924;-78
2023/05/04 20:03:26;;;;;;;;;;;13.40;99.90;;;;;;8301554;28;20343;-90
2023/05/04 20:07:26;;;;;;;;;;;13.20;99.90;;;;;;8317579;28;20396;-90
2023/05/04 20:11:27;;;;;;;;;;;13.10;99.90;;;;;;8317631;28;19971;-90
2023/05/04 20:15:27;;;;;;;;;;;12.80;99.90;;;;;;8311899;28;19921;-90
2023/05/04 20:19:28;;;;;;;;;;;12.40;99.90;;;;;;8310883;28;20369;-89
2023/05/04 20:23:28;;;;;;;;;;;12.20;99.90;;;;;;8311124;28;19931;-78
2023/05/04 20:27:29;;;;;;;;;;;11.90;99.90;;;;;;8341531;28;19913;-78
2023/05/04 20:31:29;;;;;;;;;;;11.70;99.90;;;;;;8318219;28;20522;-78
2023/05/04 20:35:30;;;;;;;;;;;11.80;99.90;;;;;;8324604;28;19929;-78
2023/05/04 20:39:31;;;;;;;;;;;11.80;99.90;;;;;;8323896;28;20466;-77
2023/05/04 20:43:31;;;;;;;;;;;11.80;99.90;;;;;;8332209;28;19909;-78
2023/05/04 20:47:32;;;;;;;;;;;11.90;99.90;;;;;;8313516;28;19913;-79
2023/05/04 20:51:32;;;;;;;;;;;11.80;99.90;;;;;;8306979;28;19916;-78
2023/05/04 20:55:33;;;;;;;;;;;11.50;99.90;;;;;;8325390;28;19913;-77
2023/05/04 20:59:33;;;;;;;;;;;11.30;99.90;;;;;;8324889;28;19921;-78
2023/05/04 21:03:34;;;;;;;;;;;11.30;99.90;;;;;;8307178;28;19971;-77
2023/05/04 21:07:35;;;;;;;;;;;11.50;99.90;;;;;;8322761;28;19917;-78
2023/05/04 21:11:35;;;;;;;;;;;11.30;99.90;;;;;;8307264;28;20004;-77
2023/05/04 21:15:37;;;;;;;;;;;11.00;99.90;;;;;;8306766;28;19928;-78
2023/05/04 21:19:37;;;;;;;;;;;10.90;99.90;;;;;;8319802;28;19920;-77
2023/05/04 21:23:38;;;;;;;;;;;10.80;99.90;;;;;;8309966;28;19920;-77
2023/05/04 21:27:38;;;;;;;;;;;10.70;99.90;;;;;;8305912;28;20885;-77
2023/05/04 21:31:39;;;;;;;;;;;10.90;99.90;;;;;;8323325;28;19962;-78
2023/05/04 21:35:40;;;;;;;;;;;10.90;99.90;;;;;;8329009;28;19913;-78
2023/05/04 21:39:41;;;;;;;;;;;10.70;99.90;;;;;;8309220;28;19912;-79
2023/05/04 21:43:42;;;;;;;;;;;10.60;99.90;;;;;;8303805;28;19924;-77
2023/05/04 21:47:42;;;;;;;;;;;10.60;99.90;;;;;;8307095;28;20275;-78
2023/05/04 21:51:43;;;;;;;;;;;10.50;99.90;;;;;;8306450;28;19913;-79
2023/05/04 21:55:43;;;;;;;;;;;10.30;99.90;;;;;;8323415;28;20024;-77
2023/05/04 21:59:46;;;;;;;;;;;10.00;99.90;;;;;;8303734;28;19968;-77
2023/05/04 22:03:46;;;;;;;;;;;9.80;99.90;;;;;;8321682;28;19956;-78
2023/05/04 22:07:47;;;;;;;;;;;9.70;99.90;;;;;;8324384;28;20431;-77
2023/05/04 22:11:50;;;;;;;;;;;9.50;99.90;;;;;;8309930;28;19921;-78
2023/05/04 22:15:51;;;;;;;;;;;9.30;99.90;;;;;;8309359;28;19920;-77
2023/05/04 22:19:51;;;;;;;;;;;9.30;99.90;;;;;;8310942;28;19913;-78
2023/05/04 22:23:52;;;;;;;;;;;9.30;99.90;;;;;;8320998;28;20517;-78
2023/05/04 22:27:53;;;;;;;;;;;9.50;99.90;;;;;;8309345;28;20595;-78
2023/05/04 22:31:53;;;;;;;;;;;9.70;99.90;;;;;;8309585;28;20313;-77
2023/05/04 22:35:54;;;;;;;;;;;9.60;99.90;;;;;;8310913;28;20413;-78
2023/05/04 22:39:54;;;;;;;;;;;9.60;99.90;;;;;;8329503;28;19984;-76
2023/05/04 22:43:55;;;;;;;;;;;9.50;99.90;;;;;;8330302;28;20344;-78
2023/05/04 22:47:55;;;;;;;;;;;9.50;99.90;;;;;;8313146;28;20301;-78
2023/05/04 22:51:56;;;;;;;;;;;9.40;99.90;;;;;;8312198;28;19917;-78
2023/05/04 22:55:56;;;;;;;;;;;9.20;99.90;;;;;;8306659;28;19920;-78
2023/05/04 22:59:57;;;;;;;;;;;9.10;99.90;;;;;;8329744;28;19920;-77
2023/05/04 23:03:57;;;;;;;;;;;9.00;99.90;;;;;;8329382;28;19916;-77
2023/05/04 23:07:57;;;;;;;;;;;8.80;99.90;;;;;;8311093;28;19924;-78
2023/05/04 23:11:58;;;;;;;;;;;8.80;99.90;;;;;;8329706;28;19925;-77
2023/05/04 23:15:58;;;;;;;;;;;8.70;99.90;;;;;;8329650;28;20115;-78
2023/05/04 23:19:59;;;;;;;;;;;8.80;99.90;;;;;;8308390;28;19933;-78
2023/05/04 23:23:59;;;;;;;;;;;8.80;99.90;;;;;;8324125;28;19908;-78
2023/05/04 23:28:00;;;;;;;;;;;8.80;99.90;;;;;;8311636;28;19920;-78